Watson, Illinois
Current Conditions -  °F | °C
As of 5:15 AM on Friday 28 Nov 2014 (Local Time) from K1H2 Reporting Station
Scattered Clouds Scattered Clouds  
Wind Chill: 13°   Ceiling: Unl
Heat Index: 21°   Visibility: 10mi
Dew Point: 13°   Wind: 6mph
Humidity: 71%   Direction: 110°ESE
Pressure: 30.38"   Gusts: NA
Location:  39.03°N, 88.57°W
Report Text: K1H2 281115Z AUTO 11005KT 10SM SCT070 M06/M10 A3038 RMK AO2 T10611105
Loading
Personal Weather Stations






























Interactive Weather Map New forecast layout! Learn more

10-Day Weather Forecast

Advertisements
Track Severe Weather on mobile